Brinckley, Indiana
Current Conditions -  °F | °C
As of 5:53 PM on Sunday 21 Dec 2014 (Local Time) from KMIE Reporting Station
Haze Haze  
Wind Chill: 31°   Ceiling: Unl
Heat Index: 31°   Visibility: 6mi
Dew Point: 27°   Wind: 3mph
Humidity: 85%   Direction: 120°ESE
Pressure: 30.16"   Gusts: NA
Location:  40.2108°N, 85.1197°W
Report Text: KMIE 212253Z 12003KT 6SM BR CLR M01/M03 A3016 RMK AO2 SLP220 T10061028
Loading
Personal Weather Stations






























Interactive Weather Map New forecast layout! Learn more

10-Day Weather Forecast

Advertisements
Track Severe Weather on mobile